Tuesday, October 23, 2018, 9:44 PM EDT
Back to Local

KFWN, Sussex Airport

Location: Sussex, NJ, United States Lat: 41.2
Local Time: 9:44 PM EDT ( 1:44 GMT) Lon: -74.633
Time Zone: US/Eastern Elev: 419 ft

Show me the last for .
Show Decoded

2018-10-23 20:53 METAR KFWN 240053Z AUTO 19003KT 10SM CLR 08/03 A3000 RMK AO2 SLP160 T00830033 =
2018-10-23 19:53 METAR KFWN 232353Z AUTO VRB05KT 10SM CLR 09/04 A2999 RMK AO2 SLP157 60000
                 T00940039 10172 20094 51025 =
2018-10-23 18:53 METAR KFWN 232253Z AUTO 27007KT 230V310 10SM FEW095 OVC120 11/04 A2998 RMK AO2
                 SLP154 T01060044 =
2018-10-23 17:53 METAR KFWN 232153Z AUTO VRB03KT 10SM FEW045 BKN090 OVC120 11/04 A2996 RMK AO2
                 RAE02 SLP145 P0000 T01110044 =
2018-10-23 16:53 METAR KFWN 232053Z AUTO VRB04KT 10SM -RA FEW055 BKN070 OVC110 14/05 A2991 RMK
                 AO2 RAB02E13B50 SLP131 P0000 60000 T01390050 55000 =
2018-10-23 15:53 METAR KFWN 231953Z AUTO VRB04KT 10SM FEW055 SCT070 OVC100 14/06 A2990 RMK AO2
                 RAB16E53 SLP125 P0000 T01390056 =
2018-10-23 14:53 METAR KFWN 231853Z AUTO VRB05KT 10SM SCT075 BKN090 BKN110 17/03 A2989 RMK AO2
                 SLP123 T01670033 =
2018-10-23 13:53 METAR KFWN 231753Z AUTO 20008KT 10SM CLR 16/06 A2992 RMK AO2 SLP131 T01610056
                 10167 20039 58037 =
2018-10-23 12:53 METAR KFWN 231653Z AUTO VRB06KT 10SM CLR 15/06 A2996 RMK AO2 SLP146 T01500061 =
2018-10-23 11:53 METAR KFWN 231553Z AUTO VRB04KT 10SM CLR 13/07 A2999 RMK AO2 SLP156 T01280067 =
2018-10-23 10:53 METAR KFWN 231453Z AUTO VRB05KT 10SM OVC070 10/06 A3003 RMK AO2 SLP170 T01000056
                 58008 =
2018-10-23 09:53 METAR KFWN 231353Z AUTO VRB03KT 10SM SCT080 08/05 A3004 RMK AO2 SLP175 T00830050
                 =
2018-10-23 08:53 METAR KFWN 231253Z AUTO 00000KT 10SM OVC080 05/04 A3006 RMK AO2 SLP181 T00500044
                 =
2018-10-23 07:53 METAR KFWN 231153Z AUTO 00000KT 10SM OVC090 04/04 A3005 RMK AO2 SLP178 T00390039
                 10050 20033 56008 =
2018-10-23 06:53 METAR KFWN 231053Z AUTO 00000KT 10SM BKN095 04/03 A3005 RMK AO2 SLP179 T00390033
                 =
2018-10-23 05:53 METAR KFWN 230953Z AUTO 00000KT 10SM OVC100 04/04 A3006 RMK AO2 SLP183 T00440039
                 =
2018-10-23 04:53 METAR KFWN 230853Z AUTO 00000KT 10SM OVC095 04/04 A3008 RMK AO2 SLP187 T00440039
                 56016 =
2018-10-23 03:53 METAR KFWN 230753Z AUTO 00000KT 10SM OVC090 04/04 A3009 RMK AO2 SLP190 T00440039
                 =
2018-10-23 02:53 METAR KFWN 230653Z AUTO 00000KT 10SM OVC085 05/04 A3011 RMK AO2 SLP198 T00500039
                 =
2018-10-23 01:53 METAR KFWN 230553Z AUTO 00000KT 10SM OVC080 05/04 A3013 RMK AO2 SLP203 T00500039
                 10050 20022 58009 =
2018-10-23 00:53 METAR KFWN 230453Z AUTO 00000KT 10SM OVC070 04/04 A3014 RMK AO2 SLP208 T00440039
                 400941006 =
2018-10-22 23:53 METAR KFWN 230353Z AUTO 00000KT 10SM OVC070 04/03 A3015 RMK AO2 SLP212 T00440033
                 =
2018-10-22 22:53 METAR KFWN 230253Z AUTO 00000KT 10SM OVC070 04/03 A3015 RMK AO2 SLP212 T00390028
                 50001 =
2018-10-22 21:53 METAR KFWN 230153Z AUTO 00000KT 10SM OVC070 04/03 A3015 RMK AO2 SLP213 T00390033
                 =

Support USWX by starting your Amazon purchase here.